Time;durP1;ratioP1;P1;durP2;ratioP2;P2;SDS_P1;SDS_P2;PMS_P1;PMS_P2;Temp;Humidity;BMP_temperature;BMP_pressure;BME280_temperature;BME280_humidity;BME280_pressure;Samples;Min_cycle;Max_cycle;Signal;HPM_P1;HPM_P2
2022/04/17 00:01:55;;;;;;;3.90;3.43;;;;;;;-143.37;100.00;62585.38;5015035;28;20494;-76
2022/04/17 00:04:34;;;;;;;5.03;3.90;;;;;;;-143.37;100.00;62585.38;5028221;28;20938;-76
2022/04/17 00:07:09;;;;;;;5.47;4.53;;;;;;;-143.37;100.00;62585.38;5014905;28;20534;-76
2022/04/17 00:09:46;;;;;;;5.03;4.40;;;;;;;-143.37;100.00;62585.38;5009576;28;20447;-76
2022/04/17 00:12:23;;;;;;;4.63;4.00;;;;;;;-143.37;100.00;62585.38;5010521;28;20451;-76
2022/04/17 00:15:00;;;;;;;5.07;4.53;;;;;;;-143.37;100.00;62585.38;5024952;28;20447;-76
2022/04/17 00:17:41;;;;;;;3.93;3.63;;;;;;;-143.37;100.00;62585.38;4999053;28;20511;-76
2022/04/17 00:20:19;;;;;;;6.80;4.67;;;;;;;-143.37;100.00;62585.38;5028827;28;20447;-76
2022/04/17 00:22:55;;;;;;;4.40;4.00;;;;;;;-143.37;100.00;62585.38;5013244;28;20447;-76
2022/04/17 00:25:30;;;;;;;6.13;4.27;;;;;;;-143.37;100.00;62585.38;5013227;28;20443;-76
2022/04/17 00:28:08;;;;;;;5.30;4.30;;;;;;;-143.37;100.00;62585.38;5021297;28;20435;-76
2022/04/17 00:30:44;;;;;;;5.40;4.07;;;;;;;-143.37;100.00;62585.38;5006217;28;20471;-76
2022/04/17 00:33:20;;;;;;;4.67;4.20;;;;;;;-143.37;100.00;62585.38;5010573;28;20432;-76
2022/04/17 00:35:57;;;;;;;5.07;4.57;;;;;;;-143.37;100.00;62585.38;5008817;28;20471;-76
2022/04/17 00:38:32;;;;;;;5.57;4.40;;;;;;;-143.37;100.00;62585.38;5021558;28;20440;-76
2022/04/17 00:41:08;;;;;;;4.10;3.70;;;;;;;-143.37;100.00;62585.38;4993986;28;20864;-76
2022/04/17 00:43:48;;;;;;;4.90;4.40;;;;;;;-143.37;100.00;62585.38;5029357;28;20443;-76
2022/04/17 00:46:23;;;;;;;4.30;3.90;;;;;;;-143.37;100.00;62585.38;5010586;28;20941;-76
2022/04/17 00:48:59;;;;;;;4.80;4.30;;;;;;;-143.37;100.00;62585.38;5024671;28;20858;-76
2022/04/17 00:51:36;;;;;;;7.90;5.10;;;;;;;-143.37;100.00;62585.38;5024409;28;20440;-76
2022/04/17 00:54:13;;;;;;;4.50;3.60;;;;;;;-143.37;100.00;62585.38;5014195;28;20843;-76
2022/04/17 00:56:49;;;;;;;4.60;4.20;;;;;;;-143.37;100.00;62585.38;5027865;28;20566;-76
2022/04/17 00:59:25;;;;;;;4.87;4.23;;;;;;;-143.37;100.00;62585.38;5012976;28;20436;-76
2022/04/17 01:02:01;;;;;;;6.33;4.87;;;;;;;-143.37;100.00;62585.38;5023687;28;20479;-76
2022/04/17 01:04:37;;;;;;;4.77;4.07;;;;;;;-143.37;100.00;62585.38;5022078;28;20534;-76
2022/04/17 01:07:14;;;;;;;4.77;4.00;;;;;;;-143.37;100.00;62585.38;5014303;28;20808;-76
2022/04/17 01:09:51;;;;;;;4.80;4.30;;;;;;;-143.37;100.00;62585.38;5019692;28;20814;-75
2022/04/17 01:12:29;;;;;;;5.40;4.30;;;;;;;-143.37;100.00;62585.38;5002918;28;20578;-76
2022/04/17 01:15:09;;;;;;;6.13;4.67;;;;;;;-143.37;100.00;62585.38;5014721;28;20467;-76
2022/04/17 01:17:47;;;;;;;4.53;4.00;;;;;;;-143.37;100.00;62585.38;4996606;28;20511;-76
2022/04/17 01:20:23;;;;;;;5.73;5.10;;;;;;;-143.37;100.00;62585.38;5008473;28;20435;-76
2022/04/17 01:28:44;;;;;;;4.93;4.17;;;;;;;-143.37;100.00;62585.38;5022737;28;20449;-76
2022/04/17 01:31:27;;;;;;;4.77;4.37;;;;;;;-143.37;100.00;62585.38;5026537;28;20465;-76
2022/04/17 01:34:03;;;;;;;5.37;4.77;;;;;;;-143.37;100.00;62585.38;4998054;28;20799;-76
2022/04/17 01:36:40;;;;;;;5.00;4.50;;;;;;;-143.37;100.00;62585.38;5023521;28;20468;-76
2022/04/17 01:39:18;;;;;;;5.60;5.10;;;;;;;-143.37;100.00;62585.38;5019309;28;20452;-76
2022/04/17 01:41:55;;;;;;;5.43;4.20;;;;;;;-143.37;100.00;62585.38;5019935;28;20535;-76
2022/04/17 01:44:30;;;;;;;5.07;4.50;;;;;;;-143.37;100.00;62585.38;5010941;28;20538;-76
2022/04/17 01:47:08;;;;;;;6.37;4.90;;;;;;;-143.37;100.00;62585.38;5027018;28;20439;-76
2022/04/17 01:49:44;;;;;;;5.10;4.60;;;;;;;-143.37;100.00;62585.38;5009416;28;20476;-76
2022/04/17 01:52:20;;;;;;;5.47;4.97;;;;;;;-143.37;100.00;62585.38;4991620;28;20451;-76
2022/04/17 01:54:57;;;;;;;9.60;5.60;;;;;;;-143.37;100.00;62585.38;5012456;28;20459;-76
2022/04/17 01:57:32;;;;;;;5.53;5.10;;;;;;;-143.37;100.00;62585.38;5029155;28;20479;-76
2022/04/17 02:00:09;;;;;;;5.83;4.83;;;;;;;-143.37;100.00;62585.38;5029989;28;20443;-76
2022/04/17 02:02:45;;;;;;;5.67;5.07;;;;;;;-143.37;100.00;62585.38;5011119;28;20459;-76
2022/04/17 02:05:20;;;;;;;6.07;5.27;;;;;;;-143.37;100.00;62585.38;5020665;28;20884;-76
2022/04/17 02:07:56;;;;;;;6.03;5.00;;;;;;;-143.37;100.00;62585.38;5011750;28;20518;-76
2022/04/17 02:10:33;;;;;;;7.27;4.93;;;;;;;-143.37;100.00;62585.38;5003915;28;20454;-76
2022/04/17 02:13:08;;;;;;;5.53;5.03;;;;;;;-143.37;100.00;62585.38;4997285;28;20447;-76
2022/04/17 02:15:44;;;;;;;6.37;5.77;;;;;;;-143.37;100.00;62585.38;5003312;28;20448;-76
2022/04/17 02:18:20;;;;;;;7.13;5.93;;;;;;;-143.37;100.00;62585.38;5009996;28;20567;-76
2022/04/17 02:20:56;;;;;;;5.37;4.87;;;;;;;-143.37;100.00;62585.38;5031053;28;20448;-76
2022/04/17 02:23:31;;;;;;;6.37;5.77;;;;;;;-143.37;100.00;62585.38;5026852;28;20471;-76
2022/04/17 02:26:08;;;;;;;5.53;4.90;;;;;;;-143.37;100.00;62585.38;5022089;28;20439;-76
2022/04/17 02:28:44;;;;;;;6.67;5.50;;;;;;;-143.37;100.00;62585.38;5007545;28;20526;-76
2022/04/17 02:31:20;;;;;;;6.87;5.10;;;;;;;-143.37;100.00;62585.38;5014613;28;20448;-76
2022/04/17 02:33:57;;;;;;;5.93;5.43;;;;;;;-143.37;100.00;62585.38;5027082;28;20775;-76
2022/04/17 02:36:32;;;;;;;6.80;5.83;;;;;;;-143.37;100.00;62585.38;5007024;28;20965;-76
2022/04/17 02:39:08;;;;;;;6.50;5.63;;;;;;;-143.37;100.00;62585.38;5004451;28;20476;-76
2022/04/17 02:41:45;;;;;;;6.30;5.30;;;;;;;-143.37;100.00;62585.38;4991055;28;20803;-76
2022/04/17 02:44:42;;;;;;;9.27;5.93;;;;;;;-143.37;100.00;62585.38;5007583;28;20464;-76
2022/04/17 02:50:11;;;;;;;5.50;5.00;;;;;;;-143.37;100.00;62585.38;5029137;28;20439;-76
2022/04/17 02:52:47;;;;;;;6.00;5.40;;;;;;;-143.37;100.00;62585.38;4992963;28;20475;-76
2022/04/17 02:55:23;;;;;;;6.03;5.40;;;;;;;-143.37;100.00;62585.38;5038875;28;20815;-76
2022/04/17 02:58:00;;;;;;;7.80;6.00;;;;;;;-143.37;100.00;62585.38;4991321;28;20472;-76
2022/04/17 03:05:35;;;;;;;6.17;5.57;;;;;;;-143.37;100.00;62585.38;5020112;28;20942;-76
2022/04/17 03:06:25;;;;;;;6.17;5.40;;;;;;;-143.37;100.00;62585.38;5013911;28;20451;-76
2022/04/17 03:09:00;;;;;;;6.80;5.83;;;;;;;-143.37;100.00;62585.38;5001727;28;20874;-76
2022/04/17 03:11:36;;;;;;;6.97;6.27;;;;;;;-143.37;100.00;62585.38;5001929;28;20813;-75
2022/04/17 03:14:14;;;;;;;6.53;5.63;;;;;;;-143.37;100.00;62585.38;5032066;28;20435;-76
2022/04/17 03:16:49;;;;;;;6.47;5.60;;;;;;;-143.37;100.00;62585.38;5033955;28;20474;-76
2022/04/17 03:19:25;;;;;;;7.50;6.00;;;;;;;-143.37;100.00;62585.38;5012801;28;20444;-76
2022/04/17 03:22:01;;;;;;;7.27;5.87;;;;;;;-143.37;100.00;62585.38;5023586;28;20463;-76
2022/04/17 03:24:36;;;;;;;7.20;6.13;;;;;;;-143.37;100.00;62585.38;5007431;28;20443;-76
2022/04/17 03:27:12;;;;;;;6.37;5.33;;;;;;;-143.37;100.00;62585.38;5022474;28;20501;-75
2022/04/17 03:29:49;;;;;;;6.13;5.53;;;;;;;-143.37;100.00;62585.38;5000773;28;20455;-76
2022/04/17 03:32:24;;;;;;;6.47;5.83;;;;;;;-143.37;100.00;62585.38;5016173;28;20447;-76
2022/04/17 03:35:09;;;;;;;6.33;5.60;;;;;;;-143.37;100.00;62585.38;5008638;28;20437;-76
2022/04/17 03:37:45;;;;;;;8.60;6.00;;;;;;;-143.37;100.00;62585.38;5000120;28;20782;-76
2022/04/17 03:40:20;;;;;;;7.57;5.47;;;;;;;-143.37;100.00;62585.38;5012992;28;20431;-76
2022/04/17 03:42:58;;;;;;;7.10;6.37;;;;;;;-143.37;100.00;62585.38;5014955;28;20431;-75
2022/04/17 03:45:36;;;;;;;6.33;5.73;;;;;;;-143.37;100.00;62585.38;5014235;28;20436;-75
2022/04/17 03:48:11;;;;;;;5.20;4.70;;;;;;;-143.37;100.00;62585.38;5004576;28;20530;-75
2022/04/17 03:50:47;;;;;;;6.80;6.10;;;;;;;-143.37;100.00;62585.38;5014680;28;20452;-76
2022/04/17 03:53:23;;;;;;;7.03;5.53;;;;;;;-143.37;100.00;62585.38;5029557;28;20435;-75
2022/04/17 03:55:59;;;;;;;6.63;5.50;;;;;;;-143.37;100.00;62585.38;4993628;28;20448;-75
2022/04/17 03:58:34;;;;;;;7.50;5.90;;;;;;;-143.37;100.00;62585.38;5014492;28;20475;-75
2022/04/17 04:01:11;;;;;;;6.30;5.17;;;;;;;-143.37;100.00;62585.38;5014754;28;20453;-75
2022/04/17 04:03:47;;;;;;;6.97;5.50;;;;;;;-143.37;100.00;62585.38;5020968;28;20532;-75
2022/04/17 04:06:22;;;;;;;6.80;6.20;;;;;;;-143.37;100.00;62585.38;5020127;28;20877;-76
2022/04/17 04:08:58;;;;;;;6.53;5.70;;;;;;;-143.37;100.00;62585.38;5012648;28;20890;-75
2022/04/17 04:11:34;;;;;;;7.37;5.47;;;;;;;-143.37;100.00;62585.38;5031787;28;20444;-75
2022/04/17 04:14:10;;;;;;;5.77;5.17;;;;;;;-143.37;100.00;62585.38;5019147;28;20436;-75
2022/04/17 04:16:48;;;;;;;7.50;6.47;;;;;;;-143.37;100.00;62585.38;5014774;28;20432;-75
2022/04/17 04:19:24;;;;;;;8.23;5.53;;;;;;;-143.37;100.00;62585.38;5013176;28;20463;-76
2022/04/17 04:22:00;;;;;;;6.57;5.07;;;;;;;-143.37;100.00;62585.38;5012346;28;20802;-76
2022/04/17 04:24:36;;;;;;;5.80;5.20;;;;;;;-143.37;100.00;62585.38;5029150;28;20809;-76
2022/04/17 04:30:22;;;;;;;5.73;5.20;;;;;;;-143.37;100.00;62585.38;5007399;28;20448;-76
2022/04/17 04:33:00;;;;;;;5.10;4.60;;;;;;;-143.37;100.00;62585.38;5000175;28;20446;-75
2022/04/17 04:35:35;;;;;;;5.60;4.90;;;;;;;-143.37;100.00;62585.38;5004007;28;20537;-75
2022/04/17 04:38:11;;;;;;;7.47;4.60;;;;;;;-143.37;100.00;62585.38;5019842;28;20463;-75
2022/04/17 04:40:47;;;;;;;5.80;4.93;;;;;;;-143.37;100.00;62585.38;5011864;28;20443;-75
2022/04/17 04:43:22;;;;;;;5.90;4.60;;;;;;;-143.37;100.00;62585.38;5000185;28;20843;-76
2022/04/17 04:46:07;;;;;;;5.90;4.60;;;;;;;-143.37;100.00;62585.38;5010197;28;20455;-76
2022/04/17 04:51:39;;;;;;;4.57;4.17;;;;;;;-143.37;100.00;62585.38;5013212;28;20813;-76
2022/04/17 04:54:15;;;;;;;5.40;4.63;;;;;;;-143.37;100.00;62585.38;5019499;28;20819;-76
2022/04/17 04:56:50;;;;;;;4.77;4.27;;;;;;;-143.37;100.00;62585.38;5010500;28;20817;-76
2022/04/17 04:59:26;;;;;;;5.90;4.53;;;;;;;-143.37;100.00;62585.38;5011971;28;20440;-76
2022/04/17 05:02:02;;;;;;;6.30;4.77;;;;;;;-143.37;100.00;62585.38;5021859;28;20463;-75
2022/04/17 05:04:41;;;;;;;5.60;4.53;;;;;;;-143.37;100.00;62585.38;5029479;28;20439;-76
2022/04/17 05:07:16;;;;;;;4.77;4.20;;;;;;;-143.37;100.00;62585.38;5021612;28;20447;-75
2022/04/17 05:09:52;;;;;;;4.80;4.30;;;;;;;-143.37;100.00;62585.38;4994963;28;20475;-75
2022/04/17 05:12:27;;;;;;;4.67;4.13;;;;;;;-143.37;100.00;62585.38;5003640;28;20436;-75
2022/04/17 05:15:03;;;;;;;5.67;4.60;;;;;;;-143.37;100.00;62585.38;5023764;28;20794;-75
2022/04/17 05:17:40;;;;;;;5.97;4.10;;;;;;;-143.37;100.00;62585.38;5029886;28;20475;-75
2022/04/17 05:20:17;;;;;;;4.83;4.27;;;;;;;-143.37;100.00;62585.38;5010935;28;20534;-75
2022/04/17 05:22:56;;;;;;;4.60;4.20;;;;;;;-143.37;100.00;62585.38;4997016;28;20799;-75
2022/04/17 05:25:33;;;;;;;6.70;3.87;;;;;;;-143.37;100.00;62585.38;5012562;28;20432;-75
2022/04/17 05:28:09;;;;;;;5.00;4.50;;;;;;;-143.37;100.00;62585.38;5011487;28;20446;-75
2022/04/17 05:30:46;;;;;;;4.53;4.07;;;;;;;-143.37;100.00;62585.38;5010052;28;20452;-75
2022/04/17 05:33:22;;;;;;;5.00;4.50;;;;;;;-143.37;100.00;62585.38;4997825;28;20435;-75
2022/04/17 05:35:59;;;;;;;5.47;4.90;;;;;;;-143.37;100.00;62585.38;5029046;28;20452;-75
2022/04/17 05:38:35;;;;;;;4.80;4.40;;;;;;;-143.37;100.00;62585.38;5010731;28;20498;-75
2022/04/17 05:41:11;;;;;;;4.60;4.20;;;;;;;-143.37;100.00;62585.38;5007386;28;20466;-75
2022/04/17 05:43:46;;;;;;;4.40;3.60;;;;;;;-143.37;100.00;62585.38;5012501;28;20534;-75
2022/04/17 05:46:22;;;;;;;4.70;4.30;;;;;;;-143.37;100.00;62585.38;4991180;28;20947;-75
2022/04/17 05:48:58;;;;;;;5.57;4.37;;;;;;;-143.37;100.00;62585.38;5009236;28;20438;-75
2022/04/17 05:51:37;;;;;;;7.13;4.83;;;;;;;-143.37;100.00;62585.38;5003190;28;20927;-75
2022/04/17 05:54:14;;;;;;;5.90;5.30;;;;;;;-143.37;100.00;62585.38;5012554;28;20428;-75
2022/04/17 05:56:50;;;;;;;5.13;4.07;;;;;;;-143.37;100.00;62585.38;5011829;28;20777;-75
2022/04/17 05:59:25;;;;;;;4.20;3.80;;;;;;;-143.37;100.00;62585.38;5011495;28;20459;-75
2022/04/17 06:02:01;;;;;;;4.50;3.90;;;;;;;-143.37;100.00;62585.38;5010046;28;20444;-75
2022/04/17 06:04:36;;;;;;;4.73;4.30;;;;;;;-143.37;100.00;62585.38;5020727;28;20468;-76
2022/04/17 06:07:13;;;;;;;5.10;4.60;;;;;;;-143.37;100.00;62585.38;5011035;28;20451;-76
2022/04/17 06:09:48;;;;;;;5.73;4.23;;;;;;;-143.37;100.00;62585.38;5006279;28;20479;-76
2022/04/17 06:12:24;;;;;;;4.63;4.13;;;;;;;-143.37;100.00;62585.38;5010456;28;20448;-76
2022/04/17 06:15:01;;;;;;;4.90;4.40;;;;;;;-143.37;100.00;62585.38;5012300;28;20443;-76
2022/04/17 06:17:38;;;;;;;4.33;3.80;;;;;;;-143.37;100.00;62585.38;5020901;28;20824;-76
2022/04/17 06:20:15;;;;;;;6.30;5.07;;;;;;;-143.37;100.00;62585.38;5008115;28;20978;-75
2022/04/17 06:22:51;;;;;;;5.30;4.53;;;;;;;-143.37;100.00;62585.38;5025771;28;20479;-76
2022/04/17 06:25:27;;;;;;;5.80;3.90;;;;;;;-143.37;100.00;62585.38;5026698;28;20474;-76
2022/04/17 06:28:03;;;;;;;5.50;3.90;;;;;;;-143.37;100.00;62585.38;5021088;28;20531;-75
2022/04/17 06:30:40;;;;;;;4.30;3.90;;;;;;;-143.37;100.00;62585.38;5010827;28;20862;-75
2022/04/17 06:33:16;;;;;;;4.40;4.00;;;;;;;-143.37;100.00;62585.38;5027842;28;20447;-76
2022/04/17 06:35:51;;;;;;;5.10;3.50;;;;;;;-143.37;100.00;62585.38;5012161;28;20487;-76
2022/04/17 06:38:30;;;;;;;4.90;3.70;;;;;;;-143.37;100.00;62585.38;5012420;28;20460;-76
2022/04/17 06:41:08;;;;;;;4.60;4.13;;;;;;;-143.37;100.00;62585.38;5016514;28;20501;-76
2022/04/17 06:43:43;;;;;;;4.50;4.10;;;;;;;-143.37;100.00;62585.38;5023856;28;20527;-76
2022/04/17 06:46:19;;;;;;;3.90;3.60;;;;;;;-143.37;100.00;62585.38;5010077;28;20920;-75
2022/04/17 06:48:55;;;;;;;4.43;3.40;;;;;;;-143.37;100.00;62585.38;4999243;28;20528;-75
2022/04/17 06:51:30;;;;;;;5.03;3.80;;;;;;;-143.37;100.00;62585.38;5010698;28;20447;-75
2022/04/17 06:54:08;;;;;;;4.00;3.60;;;;;;;-143.37;100.00;62585.38;5014873;28;20447;-75
2022/04/17 06:56:44;;;;;;;5.33;3.93;;;;;;;-143.37;100.00;62585.38;5016367;28;20936;-75
2022/04/17 06:59:20;;;;;;;3.90;3.57;;;;;;;-143.37;100.00;62585.38;5014391;28;20471;-75
2022/04/17 07:01:55;;;;;;;6.47;4.80;;;;;;;-143.37;100.00;62585.38;5015663;28;20451;-75
2022/04/17 07:04:31;;;;;;;3.90;3.43;;;;;;;-143.37;100.00;62585.38;5013436;28;20431;-74
2022/04/17 07:07:08;;;;;;;4.17;3.77;;;;;;;-143.37;100.00;62585.38;5010995;28;20973;-75
2022/04/17 07:09:54;;;;;;;3.43;3.13;;;;;;;-143.37;100.00;62585.38;5024682;28;20440;-75
2022/04/17 07:12:34;;;;;;;4.40;4.00;;;;;;;-143.37;100.00;62585.38;5015746;28;20509;-75
2022/04/17 07:15:11;;;;;;;3.73;3.27;;;;;;;-143.37;100.00;62585.38;4999046;28;20435;-75
2022/04/17 07:17:49;;;;;;;3.97;3.57;;;;;;;-143.37;100.00;62585.38;5010136;28;20469;-75
2022/04/17 07:20:25;;;;;;;3.87;3.20;;;;;;;-143.37;100.00;62585.38;5021576;28;20472;-75
2022/04/17 07:23:01;;;;;;;3.40;3.10;;;;;;;-143.37;100.00;62585.38;4998685;28;20534;-75
2022/04/17 07:25:39;;;;;;;3.93;3.53;;;;;;;-143.37;100.00;62585.38;5014075;28;20886;-75
2022/04/17 07:28:15;;;;;;;3.60;3.30;;;;;;;-143.37;100.00;62585.38;5021836;28;20771;-74
2022/04/17 07:30:50;;;;;;;4.27;3.87;;;;;;;-143.37;100.00;62585.38;5029548;28;20454;-75
2022/04/17 07:33:26;;;;;;;5.20;3.50;;;;;;;-143.37;100.00;62585.38;5027138;28;20440;-75
2022/04/17 07:36:02;;;;;;;4.00;3.67;;;;;;;-143.37;100.00;62585.38;5026135;28;20452;-74
2022/04/17 07:38:40;;;;;;;3.50;3.20;;;;;;;-143.37;100.00;62585.38;5014751;28;20471;-75
2022/04/17 07:41:17;;;;;;;3.90;3.60;;;;;;;-143.37;100.00;62585.38;5000127;28;20444;-74
2022/04/17 07:43:55;;;;;;;3.13;2.83;;;;;;;-143.37;100.00;62585.38;5005273;28;20432;-75
2022/04/17 07:46:43;;;;;;;4.33;3.77;;;;;;;-143.37;100.00;62585.38;5007787;28;20451;-76
2022/04/17 07:49:18;;;;;;;3.30;3.00;;;;;;;-143.37;100.00;62585.38;5015091;28;20440;-75
2022/04/17 07:51:54;;;;;;;3.73;3.13;;;;;;;-143.37;100.00;62585.38;4998589;28;20451;-75
2022/04/17 07:54:30;;;;;;;3.60;3.27;;;;;;;-143.37;100.00;62585.38;4999604;28;20451;-75
2022/04/17 07:57:11;;;;;;;3.57;3.27;;;;;;;-143.37;100.00;62585.38;5028653;28;20467;-75
2022/04/17 07:59:50;;;;;;;3.73;3.40;;;;;;;-143.37;100.00;62585.38;5013579;28;20520;-75
2022/04/17 08:02:39;;;;;;;3.27;3.07;;;;;;;-143.37;100.00;62585.38;5012044;28;20459;-74
2022/04/17 08:05:15;;;;;;;3.47;3.17;;;;;;;-143.37;100.00;62585.38;5042879;28;20523;-74
2022/04/17 08:07:52;;;;;;;4.23;3.53;;;;;;;-143.37;100.00;62585.38;5014115;28;20451;-74
2022/04/17 08:10:28;;;;;;;3.47;3.17;;;;;;;-143.37;100.00;62585.38;5040980;28;20540;-75
2022/04/17 08:13:05;;;;;;;4.03;3.63;;;;;;;-143.37;100.00;62585.38;5015531;28;20805;-74
2022/04/17 08:15:41;;;;;;;3.60;3.30;;;;;;;-143.37;100.00;62585.38;5015460;28;20919;-74
2022/04/17 08:18:17;;;;;;;3.83;3.53;;;;;;;-143.37;100.00;62585.38;5028849;28;20774;-74
2022/04/17 08:20:52;;;;;;;4.17;3.73;;;;;;;-143.37;100.00;62585.38;5012021;28;20442;-74
2022/04/17 08:23:28;;;;;;;3.60;3.23;;;;;;;-143.37;100.00;62585.38;5014851;28;20475;-75
2022/04/17 08:26:04;;;;;;;4.20;3.73;;;;;;;-143.37;100.00;62585.38;5031339;28;20479;-73
2022/04/17 08:28:41;;;;;;;3.40;3.07;;;;;;;-143.37;100.00;62585.38;5012300;28;20868;-73
2022/04/17 08:31:17;;;;;;;4.10;3.10;;;;;;;-143.37;100.00;62585.38;4997962;28;20470;-73
2022/04/17 08:33:53;;;;;;;3.77;3.20;;;;;;;-143.37;100.00;62585.38;5013608;28;20534;-74
2022/04/17 08:36:29;;;;;;;3.70;3.13;;;;;;;-143.37;100.00;62585.38;5027866;28;20483;-74
2022/04/17 08:39:04;;;;;;;4.00;3.20;;;;;;;-143.37;100.00;62585.38;5009506;28;20475;-76
2022/04/17 08:41:44;;;;;;;3.57;3.30;;;;;;;-143.37;100.00;62585.38;5000225;28;20541;-76
2022/04/17 08:44:21;;;;;;;3.10;2.80;;;;;;;-143.37;100.00;62585.38;5013192;28;20506;-76
2022/04/17 08:46:57;;;;;;;3.30;3.00;;;;;;;-143.37;100.00;62585.38;5013634;28;20475;-76
2022/04/17 08:49:33;;;;;;;3.53;2.93;;;;;;;-143.37;100.00;62585.38;5034232;28;20439;-76
2022/04/17 08:52:15;;;;;;;3.23;3.03;;;;;;;-143.37;100.00;62585.38;4997920;28;20446;-75
2022/04/17 08:54:50;;;;;;;4.57;3.30;;;;;;;-143.37;100.00;62585.38;4997578;28;20796;-75
2022/04/17 08:57:26;;;;;;;3.97;3.37;;;;;;;-143.37;100.00;62585.38;5037121;28;20539;-75
2022/04/17 09:00:08;;;;;;;2.90;2.53;;;;;;;-143.37;100.00;62585.38;5012382;28;20471;-80
2022/04/17 09:02:45;;;;;;;3.47;3.17;;;;;;;-143.37;100.00;62585.38;5028650;28;20448;-76
2022/04/17 09:05:21;;;;;;;4.10;2.97;;;;;;;-143.37;100.00;62585.38;5041421;28;20826;-76
2022/04/17 09:07:56;;;;;;;4.07;2.93;;;;;;;-143.37;100.00;62585.38;5006283;28;20432;-75
2022/04/17 09:10:34;;;;;;;3.50;3.20;;;;;;;-143.37;100.00;62585.38;5040539;28;20443;-76
2022/04/17 09:13:09;;;;;;;3.20;2.90;;;;;;;-143.37;100.00;62585.38;5013902;28;20442;-76
2022/04/17 09:15:48;;;;;;;3.03;2.73;;;;;;;-143.37;100.00;62585.38;5028380;28;20534;-76
2022/04/17 09:18:24;;;;;;;3.40;3.10;;;;;;;-143.37;100.00;62585.38;5012271;28;20471;-75
2022/04/17 09:21:01;;;;;;;3.37;3.07;;;;;;;-143.37;100.00;62585.38;5038008;28;20432;-75
2022/04/17 09:23:38;;;;;;;3.13;2.83;;;;;;;-143.37;100.00;62585.38;5041689;28;20435;-76
2022/04/17 09:26:15;;;;;;;3.47;3.00;;;;;;;-143.37;100.00;62585.38;5005725;28;20452;-75
2022/04/17 09:28:51;;;;;;;4.60;3.40;;;;;;;-143.37;100.00;62585.38;4997565;28;20514;-76
2022/04/17 09:31:28;;;;;;;2.97;2.73;;;;;;;-143.37;100.00;62585.38;5027879;28;20455;-75
2022/04/17 09:34:08;;;;;;;3.70;3.40;;;;;;;-143.37;100.00;62585.38;4996553;28;20474;-76
2022/04/17 09:36:43;;;;;;;3.40;2.80;;;;;;;-143.37;100.00;62585.38;5029215;28;20462;-76
2022/04/17 09:39:20;;;;;;;3.07;2.70;;;;;;;-143.37;100.00;62585.38;5012275;28;20818;-75
2022/04/17 09:41:57;;;;;;;3.53;2.73;;;;;;;-143.37;100.00;62585.38;5015808;28;20926;-75
2022/04/17 09:44:37;;;;;;;3.87;2.90;;;;;;;-143.37;100.00;62585.38;5041543;28;20519;-75
2022/04/17 09:47:17;;;;;;;3.90;3.37;;;;;;;-143.37;100.00;62585.38;5021847;28;20443;-76
2022/04/17 09:49:57;;;;;;;3.40;3.10;;;;;;;-143.37;100.00;62585.38;5013203;28;20923;-76
2022/04/17 09:52:35;;;;;;;3.20;2.90;;;;;;;-143.37;100.00;62585.38;5040686;28;20447;-76
2022/04/17 09:55:11;;;;;;;4.53;2.73;;;;;;;-143.37;100.00;62585.38;5011636;28;20526;-76
2022/04/17 09:57:57;;;;;;;3.40;2.67;;;;;;;-143.37;100.00;62585.38;5005179;28;20506;-76
2022/04/17 10:00:41;;;;;;;3.43;2.90;;;;;;;-143.37;100.00;62585.38;5010350;28;20476;-76
2022/04/17 10:03:19;;;;;;;3.80;3.10;;;;;;;-143.37;100.00;62585.38;5015425;28;20431;-76
2022/04/17 10:05:55;;;;;;;3.60;3.30;;;;;;;-143.37;100.00;62585.38;4994783;28;20447;-76
2022/04/17 10:08:32;;;;;;;3.37;3.00;;;;;;;-143.37;100.00;62585.38;5017833;28;20795;-75
2022/04/17 10:11:09;;;;;;;4.10;3.67;;;;;;;-143.37;100.00;62585.38;5016701;28;20452;-75
2022/04/17 10:13:45;;;;;;;4.30;3.03;;;;;;;-143.37;100.00;62585.38;4988231;28;20808;-76
2022/04/17 10:16:22;;;;;;;2.90;2.60;;;;;;;-143.37;100.00;62585.38;5010986;28;20942;-76
2022/04/17 10:19:00;;;;;;;2.87;2.67;;;;;;;-143.37;100.00;62585.38;5008472;28;20460;-76
2022/04/17 10:21:36;;;;;;;4.73;3.40;;;;;;;-143.37;100.00;62585.38;5014382;28;21034;-75
2022/04/17 10:24:13;;;;;;;3.90;2.80;;;;;;;-143.37;100.00;62585.38;4993942;28;20880;-76
2022/04/17 10:26:51;;;;;;;3.70;3.10;;;;;;;-143.37;100.00;62585.38;5007317;28;20448;-76
2022/04/17 10:29:30;;;;;;;2.97;2.67;;;;;;;-143.37;100.00;62585.38;4992684;28;20826;-75
2022/04/17 10:32:17;;;;;;;3.80;3.10;;;;;;;-143.37;100.00;62585.38;5007121;28;20804;-76
2022/04/17 10:35:08;;;;;;;3.07;2.17;;;;;;;-143.37;100.00;62585.38;5015485;28;20456;-76
2022/04/17 10:38:22;;;;;;;3.97;2.73;;;;;;;-143.37;100.00;62585.38;4999539;28;20448;-76
2022/04/17 10:41:00;;;;;;;2.70;2.50;;;;;;;-143.37;100.00;62585.38;4997830;28;20447;-76
2022/04/17 10:43:59;;;;;;;4.20;3.43;;;;;;;-143.37;100.00;62585.38;4997813;28;20681;-75
2022/04/17 10:46:47;;;;;;;4.70;2.83;;;;;;;-143.37;100.00;62585.38;4996644;28;20538;-75
2022/04/17 10:49:23;;;;;;;4.60;3.10;;;;;;;-143.37;100.00;62585.38;5015926;28;20447;-76
2022/04/17 10:52:00;;;;;;;3.10;2.77;;;;;;;-143.37;100.00;62585.38;4990629;28;20461;-76
2022/04/17 10:54:49;;;;;;;2.87;2.40;;;;;;;-143.37;100.00;62585.38;4999090;28;20460;-75
2022/04/17 10:57:25;;;;;;;3.30;3.03;;;;;;;-143.37;100.00;62585.38;5012425;28;20824;-76
2022/04/17 11:00:25;;;;;;;3.10;2.57;;;;;;;-143.37;100.00;62585.38;4975007;28;20475;-76
2022/04/17 11:03:04;;;;;;;2.83;2.43;;;;;;;-143.37;100.00;62585.38;5004563;28;20861;-76
2022/04/17 11:08:49;;;;;;;2.10;1.90;;;;;;;-143.37;100.00;62585.38;4987645;28;20543;-75
2022/04/17 11:11:35;;;;;;;2.30;2.10;;;;;;;-143.37;100.00;62585.38;4984974;28;20456;-76
2022/04/17 11:14:12;;;;;;;2.30;2.10;;;;;;;-143.37;100.00;62585.38;5003953;28;20452;-75
2022/04/17 11:16:53;;;;;;;2.53;2.33;;;;;;;-143.37;100.00;62585.38;4994821;28;20788;-76
2022/04/17 11:19:31;;;;;;;2.47;2.27;;;;;;;-143.37;100.00;62585.38;4996920;28;21033;-78
2022/04/17 11:22:09;;;;;;;3.93;2.87;;;;;;;-143.37;100.00;62585.38;4997392;28;20447;-76
2022/04/17 11:25:07;;;;;;;1.93;1.73;;;;;;;-143.37;100.00;62585.38;5010827;28;20463;-76
2022/04/17 11:27:49;;;;;;;3.10;2.50;;;;;;;-143.37;100.00;62585.38;5012946;28;20836;-75
2022/04/17 11:30:34;;;;;;;2.60;2.17;;;;;;;-143.37;100.00;62585.38;4997046;28;20480;-76
2022/04/17 11:33:10;;;;;;;3.93;2.30;;;;;;;-143.37;100.00;62585.38;5011367;28;20448;-76
2022/04/17 11:35:45;;;;;;;2.10;1.93;;;;;;;-143.37;100.00;62585.38;4995439;28;20444;-76
2022/04/17 11:38:21;;;;;;;2.07;1.80;;;;;;;-143.37;100.00;62585.38;5013774;28;20476;-75
2022/04/17 11:40:59;;;;;;;2.20;1.97;;;;;;;-143.37;100.00;62585.38;5014759;28;20473;-76
2022/04/17 11:43:35;;;;;;;2.70;2.10;;;;;;;-143.37;100.00;62585.38;5008519;28;20872;-75
2022/04/17 11:46:10;;;;;;;3.20;2.40;;;;;;;-143.37;100.00;62585.38;4998539;28;20443;-76
2022/04/17 11:48:47;;;;;;;2.57;2.13;;;;;;;-143.37;100.00;62585.38;4996090;28;20444;-76
2022/04/17 11:51:22;;;;;;;2.53;2.20;;;;;;;-143.37;100.00;62585.38;5013848;28;20461;-75
2022/04/17 11:53:58;;;;;;;2.87;2.50;;;;;;;-143.37;100.00;62585.38;4998943;28;20577;-75
2022/04/17 11:56:53;;;;;;;2.17;1.97;;;;;;;-143.37;100.00;62585.38;5017469;28;20989;-76
2022/04/17 11:59:28;;;;;;;2.40;2.20;;;;;;;-143.37;100.00;62585.38;5014236;28;20504;-76
2022/04/17 12:02:07;;;;;;;3.67;2.40;;;;;;;-143.37;100.00;62585.38;5024203;28;20451;-75
2022/04/17 12:04:43;;;;;;;3.50;2.07;;;;;;;-143.37;100.00;62585.38;5029698;28;20455;-76
2022/04/17 12:07:20;;;;;;;2.20;2.00;;;;;;;-143.37;100.00;62585.38;5011578;28;20840;-76
2022/04/17 12:12:42;;;;;;;3.27;2.83;;;;;;;-143.37;100.00;62585.38;5086878;28;20515;-75
2022/04/17 12:15:18;;;;;;;2.30;2.10;;;;;;;-143.37;100.00;62585.38;5070859;28;20422;-76
2022/04/17 12:18:00;;;;;;;3.03;2.60;;;;;;;-143.37;100.00;62585.38;5062449;28;20448;-76
2022/04/17 12:20:38;;;;;;;2.30;2.03;;;;;;;-143.37;100.00;62585.38;5065104;28;20638;-76